PWSweather.com
Personal Weather Stations
Station Observations
KIDJEROME
Sse Jerome Butte , Jerome, ID 83338

Sse Jerome Butte Jerome, ID 83338

Lat: 42.6981891, Lon: -114.4041362

Elevation: 3960

Station Type: Davis Vantage Pro 2

Latest ConditionsUpdated 2:00:00 PM MDT Thursday, May 23, 2019
Currently Today's Max Today's Min Today's Average
Temperature 54.0°F12.2°C 55.2°F12.9°C 46.6°F8.1°C 50.6°F10.3°C
Dew Point 41.3°F5.2°C 42.5°F5.8°C 35.4°F1.9°C 37.7°F3.2°C
Winds 10.0 mph ESE16.1 kmh ESE 18.0 mph -29.0 kmh - - 12.6 mph 20.3 kmh
Wind Gusts 19.0 mph30.6 kmh 27.0 mph43.5 kmh - -
Humidity 62% 78% 52% 61%
Pressure 29.65 in1004.1 mb 29.75 in1007.5 mb 29.65 in1004.1 mb -
Hour Temp Dew Point Humidity Winds Wind Gusts Pressure Precip Precip Rate Daily Precip Total
02:00 PM 54.0°F12.2°C 41.3°F5.2°C 62% 10.0 mph ESE16.1 kmh ESE 19.0 mph30.6 kmh 29.65 in1004.1 mb 0.00 in0.0 mm 0.00 in0.0 mm 0.00 in0.0 mm
01:45 PM 54.1°F12.3°C 40.5°F4.7°C 60% 13.0 mph ESE20.9 kmh ESE 21.0 mph33.8 kmh 29.66 in1004.4 mb 0.00 in0.0 mm 0.00 in0.0 mm 0.00 in0.0 mm
01:30 PM 54.9°F12.7°C 41.7°F5.4°C 61% 15.0 mph E24.1 kmh E 22.0 mph35.4 kmh 29.66 in1004.4 mb 0.00 in0.0 mm 0.00 in0.0 mm 0.00 in0.0 mm
01:15 PM 53.2°F11.8°C 42.5°F5.8°C 67% 11.0 mph E17.7 kmh E 18.0 mph29.0 kmh 29.66 in1004.4 mb 0.00 in0.0 mm 0.00 in0.0 mm 0.00 in0.0 mm
01:00 PM 52.2°F11.2°C 42.0°F5.6°C 68% 9.0 mph E14.5 kmh E 14.0 mph22.5 kmh 29.66 in1004.4 mb 0.00 in0.0 mm 0.00 in0.0 mm 0.00 in0.0 mm
12:45 PM 49.9°F9.9°C 40.9°F4.9°C 71% 13.0 mph E20.9 kmh E 21.0 mph33.8 kmh 29.67 in1004.7 mb 0.00 in0.0 mm 0.00 in0.0 mm 0.00 in0.0 mm
12:30 PM 52.0°F11.1°C 40.6°F4.8°C 65% 16.0 mph E25.7 kmh E 23.0 mph37.0 kmh 29.67 in1004.7 mb 0.00 in0.0 mm 0.00 in0.0 mm 0.00 in0.0 mm
12:15 PM 52.5°F11.4°C 40.3°F4.6°C 63% 13.0 mph ESE20.9 kmh ESE 21.0 mph33.8 kmh 29.67 in1004.7 mb 0.00 in0.0 mm 0.00 in0.0 mm 0.00 in0.0 mm
12:00 PM 53.3°F11.8°C 36.6°F2.6°C 53% 13.0 mph E20.9 kmh E 25.0 mph40.2 kmh 29.66 in1004.4 mb 0.00 in0.0 mm 0.00 in0.0 mm 0.00 in0.0 mm
11:45 AM 53.3°F11.8°C 36.6°F2.6°C 53% 15.0 mph E24.1 kmh E 22.0 mph35.4 kmh 29.67 in1004.7 mb 0.00 in0.0 mm 0.00 in0.0 mm 0.00 in0.0 mm
11:30 AM 54.4°F12.4°C 38.1°F3.4°C 54% 12.0 mph E19.3 kmh E 20.0 mph32.2 kmh 29.66 in1004.4 mb 0.00 in0.0 mm 0.00 in0.0 mm 0.00 in0.0 mm
11:15 AM 54.8°F12.7°C 38.5°F3.6°C 54% 13.0 mph E20.9 kmh E 19.0 mph30.6 kmh 29.66 in1004.4 mb 0.00 in0.0 mm 0.00 in0.0 mm 0.00 in0.0 mm
11:00 AM 54.5°F12.5°C 37.7°F3.2°C 53% 14.0 mph ENE22.5 kmh ENE 21.0 mph33.8 kmh 29.66 in1004.4 mb 0.00 in0.0 mm 0.00 in0.0 mm 0.00 in0.0 mm
10:45 AM 54.9°F12.7°C 37.6°F3.1°C 52% 17.0 mph E27.4 kmh E 24.0 mph38.6 kmh 29.66 in1004.4 mb 0.00 in0.0 mm 0.00 in0.0 mm 0.00 in0.0 mm
10:30 AM 55.0°F12.8°C 38.6°F3.7°C 54% 18.0 mph E29.0 kmh E 26.0 mph41.8 kmh 29.67 in1004.7 mb 0.00 in0.0 mm 0.00 in0.0 mm 0.00 in0.0 mm
10:15 AM 55.1°F12.8°C 39.2°F4.0°C 55% 18.0 mph E29.0 kmh E 27.0 mph43.5 kmh 29.68 in1005.1 mb 0.00 in0.0 mm 0.00 in0.0 mm 0.00 in0.0 mm
10:00 AM 55.2°F12.9°C 39.8°F4.3°C 56% 17.0 mph ENE27.4 kmh ENE 24.0 mph38.6 kmh 29.67 in1004.7 mb 0.00 in0.0 mm 0.00 in0.0 mm 0.00 in0.0 mm
09:45 AM 53.2°F11.8°C 37.4°F3.0°C 55% 17.0 mph ENE27.4 kmh ENE 24.0 mph38.6 kmh 29.68 in1005.1 mb 0.00 in0.0 mm 0.00 in0.0 mm 0.00 in0.0 mm
09:30 AM 52.6°F11.4°C 38.2°F3.4°C 58% 14.0 mph E22.5 kmh E 23.0 mph37.0 kmh 29.68 in1005.1 mb 0.00 in0.0 mm 0.00 in0.0 mm 0.00 in0.0 mm
09:15 AM 51.7°F10.9°C 36.9°F2.7°C 57% 16.0 mph E25.7 kmh E 25.0 mph40.2 kmh 29.68 in1005.1 mb 0.00 in0.0 mm 0.00 in0.0 mm 0.00 in0.0 mm
09:00 AM 50.8°F10.4°C 37.0°F2.8°C 59% 14.0 mph ENE22.5 kmh ENE 24.0 mph38.6 kmh 29.68 in1005.1 mb 0.00 in0.0 mm 0.00 in0.0 mm 0.00 in0.0 mm
08:45 AM 50.5°F10.3°C 36.7°F2.6°C 59% 15.0 mph ENE24.1 kmh ENE 22.0 mph35.4 kmh 29.68 in1005.1 mb 0.00 in0.0 mm 0.00 in0.0 mm 0.00 in0.0 mm
08:30 AM 50.5°F10.3°C 37.1°F2.8°C 60% 15.0 mph ENE24.1 kmh ENE 22.0 mph35.4 kmh 29.68 in1005.1 mb 0.00 in0.0 mm 0.00 in0.0 mm 0.00 in0.0 mm
08:15 AM 50.0°F10.0°C 36.7°F2.6°C 60% 14.0 mph ENE22.5 kmh ENE 23.0 mph37.0 kmh 29.68 in1005.1 mb 0.00 in0.0 mm 0.00 in0.0 mm 0.00 in0.0 mm
08:00 AM 49.8°F9.9°C 36.5°F2.5°C 60% 15.0 mph ENE24.1 kmh ENE 22.0 mph35.4 kmh 29.68 in1005.1 mb 0.00 in0.0 mm 0.00 in0.0 mm 0.00 in0.0 mm
07:45 AM 49.4°F9.7°C 36.9°F2.7°C 62% 13.0 mph ENE20.9 kmh ENE 21.0 mph33.8 kmh 29.68 in1005.1 mb 0.00 in0.0 mm 0.00 in0.0 mm 0.00 in0.0 mm
07:30 AM 49.2°F9.6°C 36.3°F2.4°C 61% 12.0 mph ENE19.3 kmh ENE 20.0 mph32.2 kmh 29.68 in1005.1 mb 0.00 in0.0 mm 0.00 in0.0 mm 0.00 in0.0 mm
07:15 AM 48.8°F9.3°C 36.8°F2.7°C 63% 11.0 mph ENE17.7 kmh ENE 19.0 mph30.6 kmh 29.68 in1005.1 mb 0.00 in0.0 mm 0.00 in0.0 mm 0.00 in0.0 mm
07:00 AM 48.5°F9.2°C 36.5°F2.5°C 63% 9.0 mph ENE14.5 kmh ENE 17.0 mph27.4 kmh 29.68 in1005.1 mb 0.00 in0.0 mm 0.00 in0.0 mm 0.00 in0.0 mm
06:45 AM 48.5°F9.2°C 36.5°F2.5°C 63% 10.0 mph ENE16.1 kmh ENE 17.0 mph27.4 kmh 29.69 in1005.4 mb 0.00 in0.0 mm 0.00 in0.0 mm 0.00 in0.0 mm
06:30 AM 48.2°F9.0°C 35.8°F2.1°C 62% 11.0 mph ENE17.7 kmh ENE 18.0 mph29.0 kmh 29.69 in1005.4 mb 0.00 in0.0 mm 0.00 in0.0 mm 0.00 in0.0 mm
06:15 AM 47.7°F8.7°C 35.7°F2.1°C 63% 12.0 mph ENE19.3 kmh ENE 18.0 mph29.0 kmh 29.70 in1005.8 mb 0.00 in0.0 mm 0.00 in0.0 mm 0.00 in0.0 mm
06:00 AM 48.2°F9.0°C 35.4°F1.9°C 61% 13.0 mph ENE20.9 kmh ENE 21.0 mph33.8 kmh 29.70 in1005.8 mb 0.00 in0.0 mm 0.00 in0.0 mm 0.00 in0.0 mm
05:45 AM 48.3°F9.1°C 35.9°F2.2°C 62% 11.0 mph ENE17.7 kmh ENE 19.0 mph30.6 kmh 29.70 in1005.8 mb 0.00 in0.0 mm 0.00 in0.0 mm 0.00 in0.0 mm
05:30 AM 48.9°F9.4°C 35.6°F2.0°C 60% 14.0 mph ENE22.5 kmh ENE 22.0 mph35.4 kmh 29.71 in1006.1 mb 0.00 in0.0 mm 0.00 in0.0 mm 0.00 in0.0 mm
05:15 AM 48.9°F9.4°C 35.6°F2.0°C 60% 14.0 mph ENE22.5 kmh ENE 22.0 mph35.4 kmh 29.71 in1006.1 mb 0.00 in0.0 mm 0.00 in0.0 mm 0.00 in0.0 mm
05:00 AM 48.9°F9.4°C 35.6°F2.0°C 60% 13.0 mph ENE20.9 kmh ENE 22.0 mph35.4 kmh 29.72 in1006.4 mb 0.00 in0.0 mm 0.00 in0.0 mm 0.00 in0.0 mm
04:45 AM 48.5°F9.2°C 35.7°F2.1°C 61% 9.0 mph ENE14.5 kmh ENE 18.0 mph29.0 kmh 29.71 in1006.1 mb 0.00 in0.0 mm 0.00 in0.0 mm 0.00 in0.0 mm
04:30 AM 48.8°F9.3°C 35.9°F2.2°C 61% 11.0 mph ENE17.7 kmh ENE 18.0 mph29.0 kmh 29.71 in1006.1 mb 0.00 in0.0 mm 0.00 in0.0 mm 0.00 in0.0 mm
04:15 AM 49.0°F9.4°C 35.7°F2.1°C 60% 12.0 mph ENE19.3 kmh ENE 18.0 mph29.0 kmh 29.72 in1006.4 mb 0.00 in0.0 mm 0.00 in0.0 mm 0.00 in0.0 mm
04:00 AM 49.1°F9.5°C 35.8°F2.1°C 60% 13.0 mph ENE20.9 kmh ENE 20.0 mph32.2 kmh 29.72 in1006.4 mb 0.00 in0.0 mm 0.00 in0.0 mm 0.00 in0.0 mm
03:45 AM 49.2°F9.6°C 35.9°F2.2°C 60% 14.0 mph ENE22.5 kmh ENE 22.0 mph35.4 kmh 29.72 in1006.4 mb 0.00 in0.0 mm 0.00 in0.0 mm 0.00 in0.0 mm
03:30 AM 49.3°F9.6°C 36.0°F2.2°C 60% 14.0 mph ENE22.5 kmh ENE 21.0 mph33.8 kmh 29.73 in1006.8 mb 0.00 in0.0 mm 0.00 in0.0 mm 0.00 in0.0 mm
03:15 AM 49.5°F9.7°C 36.2°F2.3°C 60% 14.0 mph ENE22.5 kmh ENE 22.0 mph35.4 kmh 29.72 in1006.4 mb 0.00 in0.0 mm 0.00 in0.0 mm 0.00 in0.0 mm
03:00 AM 50.0°F10.0°C 35.8°F2.1°C 58% 15.0 mph ENE24.1 kmh ENE 22.0 mph35.4 kmh 29.73 in1006.8 mb 0.00 in0.0 mm 0.00 in0.0 mm 0.00 in0.0 mm
02:45 AM 49.8°F9.9°C 36.5°F2.5°C 60% 13.0 mph ENE20.9 kmh ENE 20.0 mph32.2 kmh 29.72 in1006.4 mb 0.00 in0.0 mm 0.00 in0.0 mm 0.00 in0.0 mm
02:30 AM 49.7°F9.8°C 36.8°F2.7°C 61% 13.0 mph ENE20.9 kmh ENE 19.0 mph30.6 kmh 29.72 in1006.4 mb 0.00 in0.0 mm 0.00 in0.0 mm 0.00 in0.0 mm
02:15 AM 49.5°F9.7°C 37.0°F2.8°C 62% 13.0 mph ENE20.9 kmh ENE 21.0 mph33.8 kmh 29.73 in1006.8 mb 0.00 in0.0 mm 0.00 in0.0 mm 0.00 in0.0 mm
02:00 AM 49.7°F9.8°C 37.2°F2.9°C 62% 14.0 mph ENE22.5 kmh ENE 22.0 mph35.4 kmh 29.73 in1006.8 mb 0.00 in0.0 mm 0.00 in0.0 mm 0.00 in0.0 mm
01:45 AM 49.8°F9.9°C 38.1°F3.4°C 64% 14.0 mph ENE22.5 kmh ENE 21.0 mph33.8 kmh 29.73 in1006.8 mb 0.00 in0.0 mm 0.00 in0.0 mm 0.00 in0.0 mm
01:30 AM 50.0°F10.0°C 38.3°F3.5°C 64% 15.0 mph ENE24.1 kmh ENE 22.0 mph35.4 kmh 29.74 in1007.1 mb 0.00 in0.0 mm 0.00 in0.0 mm 0.00 in0.0 mm
01:15 AM 49.7°F9.8°C 38.8°F3.8°C 66% 13.0 mph ENE20.9 kmh ENE 19.0 mph30.6 kmh 29.73 in1006.8 mb 0.00 in0.0 mm 0.00 in0.0 mm 0.00 in0.0 mm
01:00 AM 49.2°F9.6°C 39.5°F4.2°C 69% 10.0 mph ENE16.1 kmh ENE 16.0 mph25.7 kmh 29.74 in1007.1 mb 0.00 in0.0 mm 0.00 in0.0 mm 0.00 in0.0 mm
12:45 AM 48.5°F9.2°C 39.5°F4.2°C 71% 6.0 mph ENE9.7 kmh ENE 14.0 mph22.5 kmh 29.74 in1007.1 mb 0.00 in0.0 mm 0.00 in0.0 mm 0.00 in0.0 mm
12:30 AM 47.6°F8.7°C 40.1°F4.5°C 75% 3.0 mph ENE4.8 kmh ENE 11.0 mph17.7 kmh 29.74 in1007.1 mb 0.00 in0.0 mm 0.00 in0.0 mm 0.00 in0.0 mm
12:15 AM 47.0°F8.3°C 40.5°F4.7°C 78% 1.0 mph E1.6 kmh E 4.0 mph6.4 kmh 29.75 in1007.5 mb 0.00 in0.0 mm 0.00 in0.0 mm 0.00 in0.0 mm
12:00 AM 46.6°F8.1°C 40.1°F4.5°C 78% 2.0 mph E3.2 kmh E 7.0 mph11.3 kmh 29.75 in1007.5 mb 0.00 in0.0 mm 0.00 in0.0 mm 0.00 in0.0 mm